sensor_id;sensor_type;location;lat;lon;timestamp;temperature;humidity
36924;DHT22;22841;50.252;18.688;2023-07-13T00:01:32;18.60;99.90
36924;DHT22;22841;50.252;18.688;2023-07-13T00:04:01;18.70;99.90
36924;DHT22;22841;50.252;18.688;2023-07-13T00:06:27;18.70;99.90
36924;DHT22;22841;50.252;18.688;2023-07-13T00:08:56;18.70;99.90
36924;DHT22;22841;50.252;18.688;2023-07-13T00:11:22;18.60;99.90
36924;DHT22;22841;50.252;18.688;2023-07-13T00:13:48;18.50;99.90
36924;DHT22;22841;50.252;18.688;2023-07-13T00:16:14;18.60;99.90
36924;DHT22;22841;50.252;18.688;2023-07-13T00:18:40;18.60;99.90
36924;DHT22;22841;50.252;18.688;2023-07-13T00:21:06;18.70;99.90
36924;DHT22;22841;50.252;18.688;2023-07-13T00:23:38;18.70;99.90
36924;DHT22;22841;50.252;18.688;2023-07-13T00:26:05;18.60;99.90
36924;DHT22;22841;50.252;18.688;2023-07-13T00:28:32;18.80;99.90
36924;DHT22;22841;50.252;18.688;2023-07-13T00:30:58;19.00;99.90
36924;DHT22;22841;50.252;18.688;2023-07-13T00:33:25;19.10;99.90
36924;DHT22;22841;50.252;18.688;2023-07-13T00:35:51;19.00;99.90
36924;DHT22;22841;50.252;18.688;2023-07-13T00:38:17;19.10;99.90
36924;DHT22;22841;50.252;18.688;2023-07-13T00:40:43;19.10;99.90
36924;DHT22;22841;50.252;18.688;2023-07-13T00:43:18;19.20;99.90
36924;DHT22;22841;50.252;18.688;2023-07-13T00:48:14;19.30;99.90
36924;DHT22;22841;50.252;18.688;2023-07-13T00:50:41;19.30;99.90
36924;DHT22;22841;50.252;18.688;2023-07-13T00:53:09;19.30;99.90
36924;DHT22;22841;50.252;18.688;2023-07-13T00:55:38;19.10;99.90
36924;DHT22;22841;50.252;18.688;2023-07-13T00:58:05;19.00;99.90
36924;DHT22;22841;50.252;18.688;2023-07-13T01:00:35;19.00;99.90
36924;DHT22;22841;50.252;18.688;2023-07-13T01:03:03;18.90;99.90
36924;DHT22;22841;50.252;18.688;2023-07-13T01:05:32;18.90;99.90
36924;DHT22;22841;50.252;18.688;2023-07-13T01:07:59;19.00;99.90
36924;DHT22;22841;50.252;18.688;2023-07-13T01:10:26;19.10;99.90
36924;DHT22;22841;50.252;18.688;2023-07-13T01:12:53;19.10;99.90
36924;DHT22;22841;50.252;18.688;2023-07-13T01:18:05;18.70;99.90
36924;DHT22;22841;50.252;18.688;2023-07-13T01:20:31;18.60;99.90
36924;DHT22;22841;50.252;18.688;2023-07-13T01:23:20;18.70;99.90
36924;DHT22;22841;50.252;18.688;2023-07-13T01:25:46;18.70;99.90
36924;DHT22;22841;50.252;18.688;2023-07-13T01:28:13;18.50;99.90
36924;DHT22;22841;50.252;18.688;2023-07-13T01:30:40;18.40;99.90
36924;DHT22;22841;50.252;18.688;2023-07-13T01:33:07;18.40;99.90
36924;DHT22;22841;50.252;18.688;2023-07-13T01:35:33;18.50;99.90
36924;DHT22;22841;50.252;18.688;2023-07-13T01:37:59;18.50;99.90
36924;DHT22;22841;50.252;18.688;2023-07-13T01:40:27;18.50;99.90
36924;DHT22;22841;50.252;18.688;2023-07-13T01:42:54;18.40;99.90
36924;DHT22;22841;50.252;18.688;2023-07-13T01:45:20;18.50;99.90
36924;DHT22;22841;50.252;18.688;2023-07-13T01:47:46;18.40;99.90
36924;DHT22;22841;50.252;18.688;2023-07-13T01:50:12;18.50;99.90
36924;DHT22;22841;50.252;18.688;2023-07-13T01:52:38;18.70;99.90
36924;DHT22;22841;50.252;18.688;2023-07-13T01:55:05;18.70;99.90
36924;DHT22;22841;50.252;18.688;2023-07-13T01:57:31;18.70;99.90
36924;DHT22;22841;50.252;18.688;2023-07-13T01:59:57;18.70;99.90
36924;DHT22;22841;50.252;18.688;2023-07-13T02:02:23;18.60;99.90
36924;DHT22;22841;50.252;18.688;2023-07-13T02:04:49;18.60;99.90
36924;DHT22;22841;50.252;18.688;2023-07-13T02:07:15;18.60;99.90
36924;DHT22;22841;50.252;18.688;2023-07-13T02:09:41;18.70;99.90
36924;DHT22;22841;50.252;18.688;2023-07-13T02:12:08;18.70;99.90
36924;DHT22;22841;50.252;18.688;2023-07-13T02:14:34;18.70;99.90
36924;DHT22;22841;50.252;18.688;2023-07-13T02:17:00;18.70;99.90
36924;DHT22;22841;50.252;18.688;2023-07-13T02:19:26;18.70;99.90
36924;DHT22;22841;50.252;18.688;2023-07-13T02:21:52;18.70;99.90
36924;DHT22;22841;50.252;18.688;2023-07-13T02:24:18;18.70;99.90
36924;DHT22;22841;50.252;18.688;2023-07-13T02:26:47;18.60;99.90
36924;DHT22;22841;50.252;18.688;2023-07-13T02:29:14;18.70;99.90
36924;DHT22;22841;50.252;18.688;2023-07-13T02:31:40;18.70;99.90
36924;DHT22;22841;50.252;18.688;2023-07-13T02:34:06;18.80;99.90
36924;DHT22;22841;50.252;18.688;2023-07-13T02:36:32;18.90;99.90
36924;DHT22;22841;50.252;18.688;2023-07-13T02:39:05;18.90;99.90
36924;DHT22;22841;50.252;18.688;2023-07-13T02:41:31;18.80;99.90
36924;DHT22;22841;50.252;18.688;2023-07-13T02:43:58;18.80;99.90
36924;DHT22;22841;50.252;18.688;2023-07-13T02:46:34;18.70;99.90
36924;DHT22;22841;50.252;18.688;2023-07-13T02:49:00;18.70;99.90
36924;DHT22;22841;50.252;18.688;2023-07-13T02:51:26;18.60;99.90
36924;DHT22;22841;50.252;18.688;2023-07-13T02:53:52;18.70;99.90
36924;DHT22;22841;50.252;18.688;2023-07-13T02:56:23;18.80;99.90
36924;DHT22;22841;50.252;18.688;2023-07-13T02:58:49;18.80;99.90
36924;DHT22;22841;50.252;18.688;2023-07-13T03:01:15;18.80;99.90
36924;DHT22;22841;50.252;18.688;2023-07-13T03:03:45;18.80;99.90
36924;DHT22;22841;50.252;18.688;2023-07-13T03:06:12;18.90;99.90
36924;DHT22;22841;50.252;18.688;2023-07-13T03:08:38;18.90;99.90
36924;DHT22;22841;50.252;18.688;2023-07-13T03:11:08;18.90;99.90
36924;DHT22;22841;50.252;18.688;2023-07-13T03:13:37;18.80;99.90
36924;DHT22;22841;50.252;18.688;2023-07-13T03:16:04;18.90;99.90
36924;DHT22;22841;50.252;18.688;2023-07-13T03:18:30;18.90;99.90
36924;DHT22;22841;50.252;18.688;2023-07-13T03:20:57;18.90;99.90
36924;DHT22;22841;50.252;18.688;2023-07-13T03:23:23;18.80;99.90
36924;DHT22;22841;50.252;18.688;2023-07-13T03:26:00;18.90;99.90
36924;DHT22;22841;50.252;18.688;2023-07-13T03:28:26;19.00;99.90
36924;DHT22;22841;50.252;18.688;2023-07-13T03:31:03;19.00;99.90
36924;DHT22;22841;50.252;18.688;2023-07-13T03:33:30;19.10;99.90
36924;DHT22;22841;50.252;18.688;2023-07-13T03:35:57;19.10;99.90
36924;DHT22;22841;50.252;18.688;2023-07-13T03:38:23;19.20;99.90
36924;DHT22;22841;50.252;18.688;2023-07-13T03:40:49;19.10;99.90
36924;DHT22;22841;50.252;18.688;2023-07-13T03:43:15;19.20;99.90
36924;DHT22;22841;50.252;18.688;2023-07-13T03:45:41;19.20;99.90
36924;DHT22;22841;50.252;18.688;2023-07-13T03:48:07;19.20;99.90
36924;DHT22;22841;50.252;18.688;2023-07-13T03:50:34;19.20;99.90
36924;DHT22;22841;50.252;18.688;2023-07-13T03:53:00;19.20;99.90
36924;DHT22;22841;50.252;18.688;2023-07-13T03:55:26;19.20;99.90
36924;DHT22;22841;50.252;18.688;2023-07-13T03:58:01;19.20;99.90
36924;DHT22;22841;50.252;18.688;2023-07-13T04:00:46;19.10;99.90
36924;DHT22;22841;50.252;18.688;2023-07-13T04:03:12;19.00;99.90
36924;DHT22;22841;50.252;18.688;2023-07-13T04:05:38;19.00;99.90
36924;DHT22;22841;50.252;18.688;2023-07-13T04:08:06;19.10;99.90
36924;DHT22;22841;50.252;18.688;2023-07-13T04:10:32;19.10;99.90
36924;DHT22;22841;50.252;18.688;2023-07-13T04:12:59;19.10;99.90
36924;DHT22;22841;50.252;18.688;2023-07-13T04:15:25;19.20;99.90
36924;DHT22;22841;50.252;18.688;2023-07-13T04:17:51;19.20;99.90
36924;DHT22;22841;50.252;18.688;2023-07-13T04:20:17;19.20;99.90
36924;DHT22;22841;50.252;18.688;2023-07-13T04:22:43;19.20;99.90
36924;DHT22;22841;50.252;18.688;2023-07-13T04:25:09;19.20;99.90
36924;DHT22;22841;50.252;18.688;2023-07-13T04:27:35;19.20;99.90
36924;DHT22;22841;50.252;18.688;2023-07-13T04:30:01;19.20;99.90
36924;DHT22;22841;50.252;18.688;2023-07-13T04:32:27;19.20;99.90
36924;DHT22;22841;50.252;18.688;2023-07-13T04:34:53;19.20;99.90
36924;DHT22;22841;50.252;18.688;2023-07-13T04:37:21;19.20;99.90
36924;DHT22;22841;50.252;18.688;2023-07-13T04:39:47;19.30;99.90
36924;DHT22;22841;50.252;18.688;2023-07-13T04:42:13;19.30;99.90
36924;DHT22;22841;50.252;18.688;2023-07-13T04:44:39;19.30;99.90
36924;DHT22;22841;50.252;18.688;2023-07-13T04:47:05;19.30;99.90
36924;DHT22;22841;50.252;18.688;2023-07-13T04:49:31;19.30;99.90
36924;DHT22;22841;50.252;18.688;2023-07-13T04:51:58;19.40;99.90
36924;DHT22;22841;50.252;18.688;2023-07-13T04:54:24;19.40;99.90
36924;DHT22;22841;50.252;18.688;2023-07-13T04:56:50;19.40;99.90
36924;DHT22;22841;50.252;18.688;2023-07-13T04:59:16;19.40;99.90
36924;DHT22;22841;50.252;18.688;2023-07-13T05:01:42;19.50;99.90
36924;DHT22;22841;50.252;18.688;2023-07-13T05:04:08;19.50;99.90
36924;DHT22;22841;50.252;18.688;2023-07-13T05:06:34;19.60;99.90
36924;DHT22;22841;50.252;18.688;2023-07-13T05:09:00;19.60;99.90
36924;DHT22;22841;50.252;18.688;2023-07-13T05:11:26;19.50;99.90
36924;DHT22;22841;50.252;18.688;2023-07-13T05:13:52;19.50;99.90
36924;DHT22;22841;50.252;18.688;2023-07-13T05:16:19;19.60;99.90
36924;DHT22;22841;50.252;18.688;2023-07-13T05:18:45;19.60;99.90
36924;DHT22;22841;50.252;18.688;2023-07-13T05:21:11;19.60;99.90
36924;DHT22;22841;50.252;18.688;2023-07-13T05:23:38;19.60;99.90
36924;DHT22;22841;50.252;18.688;2023-07-13T05:26:05;19.70;99.90
36924;DHT22;22841;50.252;18.688;2023-07-13T05:28:31;19.80;99.90
36924;DHT22;22841;50.252;18.688;2023-07-13T05:30:58;19.70;99.90
36924;DHT22;22841;50.252;18.688;2023-07-13T05:33:24;19.80;99.90
36924;DHT22;22841;50.252;18.688;2023-07-13T05:35:51;19.80;99.90
36924;DHT22;22841;50.252;18.688;2023-07-13T05:38:17;19.80;99.90
36924;DHT22;22841;50.252;18.688;2023-07-13T05:40:44;19.80;99.90
36924;DHT22;22841;50.252;18.688;2023-07-13T05:43:10;19.90;99.90
36924;DHT22;22841;50.252;18.688;2023-07-13T05:45:37;19.90;99.90
36924;DHT22;22841;50.252;18.688;2023-07-13T05:48:03;19.90;99.90
36924;DHT22;22841;50.252;18.688;2023-07-13T05:50:29;19.90;99.90
36924;DHT22;22841;50.252;18.688;2023-07-13T05:52:55;20.00;99.90
36924;DHT22;22841;50.252;18.688;2023-07-13T05:55:22;20.00;99.90
36924;DHT22;22841;50.252;18.688;2023-07-13T05:57:48;20.10;99.90
36924;DHT22;22841;50.252;18.688;2023-07-13T06:00:15;20.10;99.90
36924;DHT22;22841;50.252;18.688;2023-07-13T06:02:42;20.20;99.90
36924;DHT22;22841;50.252;18.688;2023-07-13T06:05:08;20.20;99.90
36924;DHT22;22841;50.252;18.688;2023-07-13T06:07:34;20.30;99.90
36924;DHT22;22841;50.252;18.688;2023-07-13T06:10:00;20.30;99.90
36924;DHT22;22841;50.252;18.688;2023-07-13T06:12:27;20.40;99.90
36924;DHT22;22841;50.252;18.688;2023-07-13T06:14:53;20.40;99.90
36924;DHT22;22841;50.252;18.688;2023-07-13T06:17:19;20.50;99.90
36924;DHT22;22841;50.252;18.688;2023-07-13T06:19:45;20.50;99.90
36924;DHT22;22841;50.252;18.688;2023-07-13T06:22:11;20.60;99.90
36924;DHT22;22841;50.252;18.688;2023-07-13T06:24:37;20.60;99.90
36924;DHT22;22841;50.252;18.688;2023-07-13T06:27:04;20.70;99.90
36924;DHT22;22841;50.252;18.688;2023-07-13T06:29:30;20.70;99.90
36924;DHT22;22841;50.252;18.688;2023-07-13T06:31:57;20.70;99.90
36924;DHT22;22841;50.252;18.688;2023-07-13T06:34:23;20.70;99.90
36924;DHT22;22841;50.252;18.688;2023-07-13T06:36:49;20.70;99.90
36924;DHT22;22841;50.252;18.688;2023-07-13T06:39:15;20.80;99.90
36924;DHT22;22841;50.252;18.688;2023-07-13T06:41:41;20.80;99.90
36924;DHT22;22841;50.252;18.688;2023-07-13T06:44:07;20.80;99.90
36924;DHT22;22841;50.252;18.688;2023-07-13T06:46:33;20.80;99.90
36924;DHT22;22841;50.252;18.688;2023-07-13T06:48:59;20.80;99.90
36924;DHT22;22841;50.252;18.688;2023-07-13T06:51:26;20.80;99.90
36924;DHT22;22841;50.252;18.688;2023-07-13T06:53:52;20.70;99.90
36924;DHT22;22841;50.252;18.688;2023-07-13T06:56:18;20.70;99.90
36924;DHT22;22841;50.252;18.688;2023-07-13T06:58:44;20.60;99.90
36924;DHT22;22841;50.252;18.688;2023-07-13T07:01:10;20.60;99.90
36924;DHT22;22841;50.252;18.688;2023-07-13T07:03:36;20.60;99.90
36924;DHT22;22841;50.252;18.688;2023-07-13T07:06:15;20.60;99.90
36924;DHT22;22841;50.252;18.688;2023-07-13T07:08:42;20.50;99.90
36924;DHT22;22841;50.252;18.688;2023-07-13T07:11:12;20.50;99.90
36924;DHT22;22841;50.252;18.688;2023-07-13T07:13:38;20.50;99.90
36924;DHT22;22841;50.252;18.688;2023-07-13T07:16:04;20.50;99.90
36924;DHT22;22841;50.252;18.688;2023-07-13T07:18:31;20.50;99.90
36924;DHT22;22841;50.252;18.688;2023-07-13T07:20:57;20.50;99.90
36924;DHT22;22841;50.252;18.688;2023-07-13T07:23:23;20.50;99.90
36924;DHT22;22841;50.252;18.688;2023-07-13T07:25:49;20.50;99.90
36924;DHT22;22841;50.252;18.688;2023-07-13T07:28:16;20.40;99.90
36924;DHT22;22841;50.252;18.688;2023-07-13T07:30:46;20.40;99.90
36924;DHT22;22841;50.252;18.688;2023-07-13T07:33:13;20.40;99.90
36924;DHT22;22841;50.252;18.688;2023-07-13T07:35:39;20.40;99.90
36924;DHT22;22841;50.252;18.688;2023-07-13T07:38:06;20.40;99.90
36924;DHT22;22841;50.252;18.688;2023-07-13T07:40:32;20.40;99.90
36924;DHT22;22841;50.252;18.688;2023-07-13T07:43:01;20.40;99.90
36924;DHT22;22841;50.252;18.688;2023-07-13T07:45:28;20.40;99.90
36924;DHT22;22841;50.252;18.688;2023-07-13T07:47:54;20.40;99.90
36924;DHT22;22841;50.252;18.688;2023-07-13T07:50:28;20.50;99.90
36924;DHT22;22841;50.252;18.688;2023-07-13T07:52:54;20.50;99.90
36924;DHT22;22841;50.252;18.688;2023-07-13T07:55:22;20.50;99.90
36924;DHT22;22841;50.252;18.688;2023-07-13T07:57:49;20.50;99.90
36924;DHT22;22841;50.252;18.688;2023-07-13T08:00:16;20.50;99.90
36924;DHT22;22841;50.252;18.688;2023-07-13T08:02:43;20.50;99.90
36924;DHT22;22841;50.252;18.688;2023-07-13T08:05:10;20.60;99.90
36924;DHT22;22841;50.252;18.688;2023-07-13T08:07:39;20.70;99.90
36924;DHT22;22841;50.252;18.688;2023-07-13T08:10:06;20.80;99.90
36924;DHT22;22841;50.252;18.688;2023-07-13T08:12:37;20.90;99.90
36924;DHT22;22841;50.252;18.688;2023-07-13T08:15:03;21.10;99.90
36924;DHT22;22841;50.252;18.688;2023-07-13T08:17:30;21.10;99.90
36924;DHT22;22841;50.252;18.688;2023-07-13T08:19:57;21.20;99.90
36924;DHT22;22841;50.252;18.688;2023-07-13T08:22:23;21.20;99.90
36924;DHT22;22841;50.252;18.688;2023-07-13T08:24:49;21.30;99.90
36924;DHT22;22841;50.252;18.688;2023-07-13T08:27:23;21.30;99.90
36924;DHT22;22841;50.252;18.688;2023-07-13T08:29:49;21.50;99.90
36924;DHT22;22841;50.252;18.688;2023-07-13T08:32:17;21.50;99.90
36924;DHT22;22841;50.252;18.688;2023-07-13T08:34:44;21.60;99.90
36924;DHT22;22841;50.252;18.688;2023-07-13T08:37:10;21.60;99.90
36924;DHT22;22841;50.252;18.688;2023-07-13T08:39:36;21.70;99.90
36924;DHT22;22841;50.252;18.688;2023-07-13T08:42:54;21.80;99.90
36924;DHT22;22841;50.252;18.688;2023-07-13T08:47:54;21.90;99.90
36924;DHT22;22841;50.252;18.688;2023-07-13T08:50:25;21.90;99.90
36924;DHT22;22841;50.252;18.688;2023-07-13T08:52:55;21.80;99.90
36924;DHT22;22841;50.252;18.688;2023-07-13T08:55:25;21.80;99.90
36924;DHT22;22841;50.252;18.688;2023-07-13T08:57:59;21.60;99.90
36924;DHT22;22841;50.252;18.688;2023-07-13T09:00:42;21.40;99.90
36924;DHT22;22841;50.252;18.688;2023-07-13T09:03:23;21.10;99.90
36924;DHT22;22841;50.252;18.688;2023-07-13T09:05:54;20.90;99.90
36924;DHT22;22841;50.252;18.688;2023-07-13T09:11:06;20.70;99.90
36924;DHT22;22841;50.252;18.688;2023-07-13T09:14:40;20.60;99.90
36924;DHT22;22841;50.252;18.688;2023-07-13T09:16:46;20.50;99.90
36924;DHT22;22841;50.252;18.688;2023-07-13T09:19:20;20.40;99.90
36924;DHT22;22841;50.252;18.688;2023-07-13T09:21:49;20.30;99.90
36924;DHT22;22841;50.252;18.688;2023-07-13T09:24:39;20.20;99.90
36924;DHT22;22841;50.252;18.688;2023-07-13T09:27:22;20.00;99.90
36924;DHT22;22841;50.252;18.688;2023-07-13T09:29:57;19.80;99.90
36924;DHT22;22841;50.252;18.688;2023-07-13T09:32:24;19.50;99.90
36924;DHT22;22841;50.252;18.688;2023-07-13T09:34:53;19.20;99.90
36924;DHT22;22841;50.252;18.688;2023-07-13T09:37:22;19.00;99.90
36924;DHT22;22841;50.252;18.688;2023-07-13T09:39:49;18.80;99.90
36924;DHT22;22841;50.252;18.688;2023-07-13T09:42:19;18.50;99.90
36924;DHT22;22841;50.252;18.688;2023-07-13T09:47:22;18.10;99.90
36924;DHT22;22841;50.252;18.688;2023-07-13T09:49:58;17.90;99.90
36924;DHT22;22841;50.252;18.688;2023-07-13T09:52:25;17.70;99.90
36924;DHT22;22841;50.252;18.688;2023-07-13T09:54:54;17.60;99.90
36924;DHT22;22841;50.252;18.688;2023-07-13T09:57:26;17.50;99.90
36924;DHT22;22841;50.252;18.688;2023-07-13T09:59:54;17.50;99.90
36924;DHT22;22841;50.252;18.688;2023-07-13T10:02:42;17.50;99.90
36924;DHT22;22841;50.252;18.688;2023-07-13T10:05:14;17.40;99.90
36924;DHT22;22841;50.252;18.688;2023-07-13T10:07:44;17.30;99.90
36924;DHT22;22841;50.252;18.688;2023-07-13T10:10:19;17.30;99.90
36924;DHT22;22841;50.252;18.688;2023-07-13T10:12:47;17.30;99.90
36924;DHT22;22841;50.252;18.688;2023-07-13T10:15:18;17.30;99.90
36924;DHT22;22841;50.252;18.688;2023-07-13T10:17:45;17.30;99.90
36924;DHT22;22841;50.252;18.688;2023-07-13T10:20:12;17.30;99.90
36924;DHT22;22841;50.252;18.688;2023-07-13T10:22:52;17.30;99.90
36924;DHT22;22841;50.252;18.688;2023-07-13T10:25:22;17.40;99.90
36924;DHT22;22841;50.252;18.688;2023-07-13T10:27:51;17.40;99.90
36924;DHT22;22841;50.252;18.688;2023-07-13T10:30:24;17.40;99.90
36924;DHT22;22841;50.252;18.688;2023-07-13T10:32:57;17.40;99.90
36924;DHT22;22841;50.252;18.688;2023-07-13T10:35:24;17.50;99.90
36924;DHT22;22841;50.252;18.688;2023-07-13T10:40:26;17.60;99.90
36924;DHT22;22841;50.252;18.688;2023-07-13T10:42:56;17.60;99.90
36924;DHT22;22841;50.252;18.688;2023-07-13T10:45:24;17.60;99.90
36924;DHT22;22841;50.252;18.688;2023-07-13T10:47:52;17.60;99.90
36924;DHT22;22841;50.252;18.688;2023-07-13T10:50:24;17.60;99.90
36924;DHT22;22841;50.252;18.688;2023-07-13T10:52:53;17.60;99.90
36924;DHT22;22841;50.252;18.688;2023-07-13T10:58:22;17.80;99.90
36924;DHT22;22841;50.252;18.688;2023-07-13T11:00:49;17.90;99.90
36924;DHT22;22841;50.252;18.688;2023-07-13T11:03:18;17.90;99.90
36924;DHT22;22841;50.252;18.688;2023-07-13T11:05:49;18.00;99.90
36924;DHT22;22841;50.252;18.688;2023-07-13T11:08:21;18.10;99.90
36924;DHT22;22841;50.252;18.688;2023-07-13T11:10:57;18.20;99.90
36924;DHT22;22841;50.252;18.688;2023-07-13T11:13:57;18.20;99.90
36924;DHT22;22841;50.252;18.688;2023-07-13T11:18:51;18.30;99.90
36924;DHT22;22841;50.252;18.688;2023-07-13T11:21:19;18.30;99.90
36924;DHT22;22841;50.252;18.688;2023-07-13T11:23:54;18.30;99.90
36924;DHT22;22841;50.252;18.688;2023-07-13T11:31:56;18.40;99.90
36924;DHT22;22841;50.252;18.688;2023-07-13T11:34:33;18.50;99.90
36924;DHT22;22841;50.252;18.688;2023-07-13T11:37:01;18.60;99.90
36924;DHT22;22841;50.252;18.688;2023-07-13T11:39:36;18.70;99.90
36924;DHT22;22841;50.252;18.688;2023-07-13T11:42:07;18.70;99.90
36924;DHT22;22841;50.252;18.688;2023-07-13T11:44:35;18.70;99.90
36924;DHT22;22841;50.252;18.688;2023-07-13T11:47:16;18.70;99.90
36924;DHT22;22841;50.252;18.688;2023-07-13T11:49:44;18.70;99.90
36924;DHT22;22841;50.252;18.688;2023-07-13T11:52:18;18.80;99.90
36924;DHT22;22841;50.252;18.688;2023-07-13T11:54:55;18.80;99.90
36924;DHT22;22841;50.252;18.688;2023-07-13T11:57:31;18.70;99.90
36924;DHT22;22841;50.252;18.688;2023-07-13T12:00:11;18.70;99.90
36924;DHT22;22841;50.252;18.688;2023-07-13T12:02:42;18.80;99.90
36924;DHT22;22841;50.252;18.688;2023-07-13T12:05:17;18.80;99.90
36924;DHT22;22841;50.252;18.688;2023-07-13T12:07:43;18.70;99.90
36924;DHT22;22841;50.252;18.688;2023-07-13T12:10:28;18.80;99.90
36924;DHT22;22841;50.252;18.688;2023-07-13T12:15:22;18.60;99.90
36924;DHT22;22841;50.252;18.688;2023-07-13T12:17:49;18.70;99.90
36924;DHT22;22841;50.252;18.688;2023-07-13T12:20:35;18.70;99.90
36924;DHT22;22841;50.252;18.688;2023-07-13T12:23:05;18.60;99.90
36924;DHT22;22841;50.252;18.688;2023-07-13T12:25:32;18.60;99.90
36924;DHT22;22841;50.252;18.688;2023-07-13T12:27:58;18.70;99.90
36924;DHT22;22841;50.252;18.688;2023-07-13T12:30:25;18.70;99.90
36924;DHT22;22841;50.252;18.688;2023-07-13T12:33:01;18.80;99.90
36924;DHT22;22841;50.252;18.688;2023-07-13T12:35:30;19.10;99.90
36924;DHT22;22841;50.252;18.688;2023-07-13T12:37:59;19.20;99.90
36924;DHT22;22841;50.252;18.688;2023-07-13T12:40:35;19.30;99.90
36924;DHT22;22841;50.252;18.688;2023-07-13T12:43:03;19.40;99.90
36924;DHT22;22841;50.252;18.688;2023-07-13T12:45:33;19.60;99.90
36924;DHT22;22841;50.252;18.688;2023-07-13T12:48:13;19.70;99.90
36924;DHT22;22841;50.252;18.688;2023-07-13T12:50:42;19.80;99.90
36924;DHT22;22841;50.252;18.688;2023-07-13T12:53:29;19.80;99.90
36924;DHT22;22841;50.252;18.688;2023-07-13T12:56:02;20.40;99.90
36924;DHT22;22841;50.252;18.688;2023-07-13T12:58:41;20.50;99.90
36924;DHT22;22841;50.252;18.688;2023-07-13T13:01:10;20.50;99.90
36924;DHT22;22841;50.252;18.688;2023-07-13T13:03:47;20.40;99.90
36924;DHT22;22841;50.252;18.688;2023-07-13T13:08:42;19.80;99.90
36924;DHT22;22841;50.252;18.688;2023-07-13T13:11:09;19.70;99.90
36924;DHT22;22841;50.252;18.688;2023-07-13T13:13:35;19.60;99.90
36924;DHT22;22841;50.252;18.688;2023-07-13T13:18:46;19.70;99.90
36924;DHT22;22841;50.252;18.688;2023-07-13T13:21:12;19.70;1.00
36924;DHT22;22841;50.252;18.688;2023-07-13T13:23:39;19.70;1.00
36924;DHT22;22841;50.252;18.688;2023-07-13T13:26:10;19.70;99.90
36924;DHT22;22841;50.252;18.688;2023-07-13T13:28:36;19.50;99.90
36924;DHT22;22841;50.252;18.688;2023-07-13T13:31:02;19.40;1.00
36924;DHT22;22841;50.252;18.688;2023-07-13T13:33:28;19.30;99.90
36924;DHT22;22841;50.252;18.688;2023-07-13T13:35:56;19.30;1.00
36924;DHT22;22841;50.252;18.688;2023-07-13T13:38:26;19.30;83.70
36924;DHT22;22841;50.252;18.688;2023-07-13T13:40:52;19.30;1.00
36924;DHT22;22841;50.252;18.688;2023-07-13T13:43:26;19.30;99.90
36924;DHT22;22841;50.252;18.688;2023-07-13T13:45:56;19.30;1.00
36924;DHT22;22841;50.252;18.688;2023-07-13T13:48:32;19.40;99.90
36924;DHT22;22841;50.252;18.688;2023-07-13T13:51:00;19.40;1.00
36924;DHT22;22841;50.252;18.688;2023-07-13T13:53:27;19.50;1.00
36924;DHT22;22841;50.252;18.688;2023-07-13T13:55:54;19.60;1.00
36924;DHT22;22841;50.252;18.688;2023-07-13T13:58:20;19.60;75.90
36924;DHT22;22841;50.252;18.688;2023-07-13T14:00:47;19.50;99.90
36924;DHT22;22841;50.252;18.688;2023-07-13T14:03:17;19.50;99.90
36924;DHT22;22841;50.252;18.688;2023-07-13T14:05:44;19.40;99.90
36924;DHT22;22841;50.252;18.688;2023-07-13T14:08:19;19.40;99.90
36924;DHT22;22841;50.252;18.688;2023-07-13T14:10:48;19.40;99.90
36924;DHT22;22841;50.252;18.688;2023-07-13T14:13:18;19.50;1.00
36924;DHT22;22841;50.252;18.688;2023-07-13T14:15:45;19.60;29.20
36924;DHT22;22841;50.252;18.688;2023-07-13T14:18:12;19.60;99.90
36924;DHT22;22841;50.252;18.688;2023-07-13T14:20:47;19.60;99.90
36924;DHT22;22841;50.252;18.688;2023-07-13T14:23:14;19.60;99.90
36924;DHT22;22841;50.252;18.688;2023-07-13T14:25:42;19.60;99.90
36924;DHT22;22841;50.252;18.688;2023-07-13T14:28:27;19.60;1.00
36924;DHT22;22841;50.252;18.688;2023-07-13T14:30:54;19.70;1.00
36924;DHT22;22841;50.252;18.688;2023-07-13T14:33:20;19.90;99.90
36924;DHT22;22841;50.252;18.688;2023-07-13T14:35:46;19.90;1.00
36924;DHT22;22841;50.252;18.688;2023-07-13T14:38:16;19.90;29.00
36924;DHT22;22841;50.252;18.688;2023-07-13T14:40:43;20.00;99.90
36924;DHT22;22841;50.252;18.688;2023-07-13T14:43:13;20.10;99.90
36924;DHT22;22841;50.252;18.688;2023-07-13T14:45:42;20.30;1.00
36924;DHT22;22841;50.252;18.688;2023-07-13T14:48:17;20.50;99.90
36924;DHT22;22841;50.252;18.688;2023-07-13T14:50:45;20.40;1.00
36924;DHT22;22841;50.252;18.688;2023-07-13T14:53:13;20.50;1.00
36924;DHT22;22841;50.252;18.688;2023-07-13T14:55:39;20.40;1.00
36924;DHT22;22841;50.252;18.688;2023-07-13T14:58:06;20.40;99.90
36924;DHT22;22841;50.252;18.688;2023-07-13T15:00:32;20.50;7.50
36924;DHT22;22841;50.252;18.688;2023-07-13T15:03:00;20.60;50.00
36924;DHT22;22841;50.252;18.688;2023-07-13T15:05:28;20.80;99.90
36924;DHT22;22841;50.252;18.688;2023-07-13T15:07:58;20.90;99.90
36924;DHT22;22841;50.252;18.688;2023-07-13T15:10:30;21.00;99.90
36924;DHT22;22841;50.252;18.688;2023-07-13T15:13:04;21.10;84.00
36924;DHT22;22841;50.252;18.688;2023-07-13T15:15:40;21.10;99.90
36924;DHT22;22841;50.252;18.688;2023-07-13T15:18:13;21.10;99.90
36924;DHT22;22841;50.252;18.688;2023-07-13T15:20:40;21.10;50.20
36924;DHT22;22841;50.252;18.688;2023-07-13T15:23:06;21.20;1.00
36924;DHT22;22841;50.252;18.688;2023-07-13T15:25:33;21.10;99.90
36924;DHT22;22841;50.252;18.688;2023-07-13T15:28:00;21.00;99.90
36924;DHT22;22841;50.252;18.688;2023-07-13T15:30:29;20.80;99.90
36924;DHT22;22841;50.252;18.688;2023-07-13T15:33:21;20.80;99.90
36924;DHT22;22841;50.252;18.688;2023-07-13T15:35:48;20.70;52.90
36924;DHT22;22841;50.252;18.688;2023-07-13T15:38:21;20.60;44.60
36924;DHT22;22841;50.252;18.688;2023-07-13T15:40:48;20.70;99.90
36924;DHT22;22841;50.252;18.688;2023-07-13T15:43:17;20.80;99.90
36924;DHT22;22841;50.252;18.688;2023-07-13T15:45:44;20.90;28.90
36924;DHT22;22841;50.252;18.688;2023-07-13T15:48:22;20.90;99.90
36924;DHT22;22841;50.252;18.688;2023-07-13T15:51:01;21.00;99.90
36924;DHT22;22841;50.252;18.688;2023-07-13T15:53:35;21.00;99.90
36924;DHT22;22841;50.252;18.688;2023-07-13T15:56:19;21.20;99.90
36924;DHT22;22841;50.252;18.688;2023-07-13T15:58:46;21.20;99.90
36924;DHT22;22841;50.252;18.688;2023-07-13T16:01:13;21.10;1.00
36924;DHT22;22841;50.252;18.688;2023-07-13T16:03:39;21.10;99.90